Hong Kong International Airport
VHHH : now visible

Airfield :











YOU CAN JOIN US ON...

 
LOGIN :

Register | Disclaimer

   EN    FR    IT 

 









Legend :    VFR   Marginal VFR   IFR   Intensive IFR   Very Intensive IFR
Visi :
Ceiling :
>= 8 km
>= 3000ft
5 to 8 km
1000 to 3000 ft
1500m to 5 km
500 to 1000 ft
800 to 1500m
200 to 500 ft
< 800m
< 200 ft
Symbols :   Thunderstorms  Fog  Heavy snow  Heavy precipitations  Wind > 20 kt






- Airport Elevation : 28 ft
- IATA code : HKG


VHHH - Hong Kong International

CURRENT METAR :
  • 201900Z 04008KT 9999 FEW045 20/15 Q1019 NOSIG

EXPIRED METARs :
  • 201830Z 05007KT 9999 FEW045 21/15 Q1019 NOSIG
  • 201800Z VRB01KT 9999 FEW045 21/15 Q1019 NOSIG
  • 201730Z 19002KT 9999 FEW045 20/14 Q1019 NOSIG
  • 201700Z 19003KT 100V240 9999 FEW045 20/15 Q1019 NOSIG
  • 201630Z 10005KT 070V160 CAVOK 21/15 Q1019 NOSIG

TAF TAF VHHH
Valid from the 20 at 18:00 until the 22 at 00:00 UTC


201700Z 2018/2124 06010KT 9999 FEW040 TX25/2106Z TN19/2022Z TN20/2122Z
BECMG 2103/2105 28010KT
BECMG 2109/2111 06010KT
TEMPO 2109/2115 12010KT



MET'MAP, your aeronautical weather chart ! - Copyright ORBIFLY December 2007 - Disclaimer

ORBIFLY MET'MAP TEAM :

Programming & Development : Alexandra Zaïnal
Concept & Development : Baudouin d'Aumeries
Co-Development & Prog : Marc-Olivier Méhu
Technical & hardware support : Manuel Goepfert

Contact : metmap@orbifly.com




SOURCES & CREDITS :

   NOAA       Earth
Advisory